createdAt,value
2022-10-18T00:00:52.309Z,14.05
2022-10-18T00:03:20.079Z,14.06
2022-10-18T00:05:48.046Z,14.12
2022-10-18T00:08:16.062Z,14.15
2022-10-18T00:10:45.598Z,14.20
2022-10-18T00:13:13.587Z,14.19
2022-10-18T00:15:41.471Z,14.18
2022-10-18T00:18:09.206Z,14.20
2022-10-18T00:20:36.931Z,14.24
2022-10-18T00:23:04.667Z,14.26
2022-10-18T00:25:32.406Z,14.27
2022-10-18T00:28:01.528Z,14.26
2022-10-18T00:30:29.313Z,14.26
2022-10-18T00:32:57.042Z,14.27
2022-10-18T00:35:24.917Z,14.22
2022-10-18T00:37:52.631Z,14.17
2022-10-18T00:40:20.362Z,14.06
2022-10-18T00:42:48.079Z,14.00
2022-10-18T00:45:21.610Z,13.91
2022-10-18T00:47:54.510Z,13.84
2022-10-18T00:50:24.035Z,13.81
2022-10-18T00:52:55.148Z,13.72
2022-10-18T00:55:23.329Z,13.61
2022-10-18T00:57:51.326Z,13.59
2022-10-18T01:00:20.870Z,13.65
2022-10-18T01:02:48.868Z,13.72
2022-10-18T01:05:19.067Z,13.77
2022-10-18T01:08:02.934Z,13.80
2022-10-18T01:10:36.507Z,13.81
2022-10-18T01:13:14.869Z,13.83
2022-10-18T01:15:50.817Z,13.84
2022-10-18T01:18:26.229Z,13.85
2022-10-18T01:21:08.828Z,13.85
2022-10-18T01:23:55.303Z,13.78
2022-10-18T01:26:38.028Z,13.68
2022-10-18T01:29:18.829Z,13.73
2022-10-18T01:31:51.066Z,13.76
2022-10-18T01:34:20.993Z,13.77
2022-10-18T01:36:53.113Z,13.75
2022-10-18T01:39:25.533Z,13.74
2022-10-18T01:41:55.870Z,13.75
2022-10-18T01:44:27.648Z,13.74
2022-10-18T01:46:58.507Z,13.73
2022-10-18T01:49:27.470Z,13.70
2022-10-18T01:51:55.219Z,13.69
2022-10-18T01:54:27.340Z,13.68
2022-10-18T01:56:59.893Z,13.66
2022-10-18T01:59:40.521Z,13.63
2022-10-18T02:02:20.010Z,13.56
2022-10-18T02:04:55.436Z,13.53
2022-10-18T02:07:33.824Z,13.54
2022-10-18T02:10:09.035Z,13.55
2022-10-18T02:12:40.706Z,13.57
2022-10-18T02:15:09.984Z,13.55
2022-10-18T02:17:41.001Z,13.47
2022-10-18T02:20:10.079Z,13.40
2022-10-18T02:22:39.364Z,13.30
2022-10-18T02:25:14.603Z,13.22
2022-10-18T02:27:42.490Z,13.17
2022-10-18T02:30:11.571Z,13.21
2022-10-18T02:32:45.361Z,13.24
2022-10-18T02:35:21.049Z,13.29
2022-10-18T02:37:51.385Z,13.34
2022-10-18T02:40:19.660Z,13.34
2022-10-18T02:42:49.875Z,13.33
2022-10-18T02:45:18.650Z,13.32
2022-10-18T02:47:47.793Z,13.30
2022-10-18T02:50:16.020Z,13.24
2022-10-18T02:52:43.736Z,13.13
2022-10-18T02:55:12.073Z,13.02
2022-10-18T02:57:39.790Z,13.01
2022-10-18T03:00:08.690Z,13.01
2022-10-18T03:02:36.650Z,12.93
2022-10-18T03:05:06.402Z,12.83
2022-10-18T03:07:34.312Z,12.82
2022-10-18T03:10:02.270Z,12.78
2022-10-18T03:12:30.007Z,12.77
2022-10-18T03:14:57.705Z,12.77
2022-10-18T03:17:25.532Z,12.82
2022-10-18T03:19:53.277Z,12.85
2022-10-18T03:22:22.790Z,12.88
2022-10-18T03:24:50.535Z,12.88
2022-10-18T03:27:18.295Z,12.83
2022-10-18T03:29:46.014Z,12.76
2022-10-18T03:32:13.756Z,12.73
2022-10-18T03:34:41.525Z,12.73
2022-10-18T03:37:09.699Z,12.68
2022-10-18T03:39:38.793Z,12.66
2022-10-18T03:42:06.499Z,12.67
2022-10-18T03:44:34.231Z,12.66
2022-10-18T03:47:01.961Z,12.68
2022-10-18T03:49:29.736Z,12.68
2022-10-18T03:51:57.514Z,12.68
2022-10-18T03:54:25.282Z,12.70
2022-10-18T03:56:54.345Z,12.69
2022-10-18T03:59:22.625Z,12.65
2022-10-18T04:01:50.553Z,12.60
2022-10-18T04:04:18.380Z,12.55
2022-10-18T04:06:46.349Z,12.51
2022-10-18T04:09:14.126Z,12.48
2022-10-18T04:11:41.985Z,12.43
2022-10-18T04:14:11.121Z,12.40
2022-10-18T04:16:38.889Z,12.37
2022-10-18T04:19:06.602Z,12.23
2022-10-18T04:21:34.415Z,12.22
2022-10-18T04:24:02.151Z,12.24
2022-10-18T04:26:29.909Z,12.16
2022-10-18T04:28:57.671Z,12.11
2022-10-18T04:31:26.842Z,12.07
2022-10-18T04:33:54.955Z,12.05
2022-10-18T04:36:22.698Z,12.00
2022-10-18T04:38:50.456Z,11.93
2022-10-18T04:41:18.241Z,11.85
2022-10-18T04:46:18.665Z,11.74
2022-10-18T04:48:47.784Z,11.70
2022-10-18T04:51:15.564Z,11.52
2022-10-18T04:53:43.253Z,11.36
2022-10-18T04:56:10.964Z,11.23
2022-10-18T04:58:38.724Z,11.23
2022-10-18T05:01:07.375Z,11.14
2022-10-18T05:03:35.216Z,11.10
2022-10-18T05:06:05.395Z,11.07
2022-10-18T05:08:34.634Z,10.97
2022-10-18T05:11:02.972Z,10.94
2022-10-18T05:13:31.138Z,11.03
2022-10-18T05:16:00.684Z,11.11
2022-10-18T05:18:28.603Z,11.14
2022-10-18T05:20:56.315Z,11.17
2022-10-18T05:23:25.785Z,11.22
2022-10-18T05:25:53.489Z,11.23
2022-10-18T05:28:38.645Z,11.06
2022-10-18T05:31:08.766Z,10.97
2022-10-18T05:33:36.601Z,10.96
2022-10-18T05:36:04.679Z,11.02
2022-10-18T05:38:33.844Z,11.08
2022-10-18T05:41:05.379Z,11.12
2022-10-18T05:43:33.119Z,11.15
2022-10-18T05:46:00.832Z,11.14
2022-10-18T05:48:28.602Z,11.13
2022-10-18T05:50:59.077Z,11.15
2022-10-18T05:53:42.431Z,11.22
2022-10-18T05:56:12.361Z,11.23
2022-10-18T05:58:40.973Z,11.27
2022-10-18T06:01:09.891Z,11.27
2022-10-18T06:03:37.972Z,11.10
2022-10-18T06:06:07.965Z,11.03
2022-10-18T06:09:03.612Z,11.05
2022-10-18T06:11:38.171Z,11.12
2022-10-18T06:14:06.227Z,11.12
2022-10-18T06:16:34.076Z,11.08
2022-10-18T06:19:01.882Z,11.01
2022-10-18T06:21:29.706Z,11.03
2022-10-18T06:23:59.098Z,11.05
2022-10-18T06:26:28.059Z,11.11
2022-10-18T06:28:57.347Z,11.12
2022-10-18T06:31:25.095Z,11.09
2022-10-18T06:33:52.833Z,10.98
2022-10-18T06:36:22.385Z,10.89
2022-10-18T06:38:50.373Z,10.84
2022-10-18T06:41:19.259Z,10.95
2022-10-18T06:43:49.587Z,11.03
2022-10-18T06:46:18.778Z,10.99
2022-10-18T06:48:46.980Z,10.95
2022-10-18T06:51:15.187Z,11.04
2022-10-18T06:58:00.950Z,11.19
2022-10-18T07:03:34.702Z,11.68
2022-10-18T07:06:03.382Z,11.91
2022-10-18T07:15:34.940Z,12.43
2022-10-18T07:18:45.039Z,12.81
2022-10-18T07:21:16.049Z,12.93
2022-10-18T07:23:45.959Z,13.12
2022-10-18T07:26:15.699Z,13.29
2022-10-18T07:28:45.778Z,13.17
2022-10-18T07:31:14.195Z,12.98
2022-10-18T07:33:43.173Z,13.08
2022-10-18T07:36:12.611Z,13.89
2022-10-18T07:38:42.115Z,15.01
2022-10-18T07:41:13.074Z,15.69
2022-10-18T07:43:43.808Z,16.22
2022-10-18T07:46:11.564Z,17.03
2022-10-18T07:48:39.424Z,17.76
2022-10-18T07:51:07.477Z,18.13
2022-10-18T07:53:35.525Z,17.50
2022-10-18T07:56:08.751Z,16.86
2022-10-18T07:58:37.452Z,17.97
2022-10-18T08:01:07.113Z,18.85
2022-10-18T08:03:39.305Z,19.88
2022-10-18T08:06:09.133Z,20.32
2022-10-18T08:08:39.326Z,21.04
2022-10-18T08:11:10.995Z,21.45
2022-10-18T08:13:38.762Z,21.16
2022-10-18T08:16:08.949Z,21.14
2022-10-18T08:18:38.052Z,21.10
2022-10-18T08:21:07.696Z,21.00
2022-10-18T08:23:36.604Z,20.81
2022-10-18T08:26:05.797Z,21.04
2022-10-18T08:28:36.710Z,20.87
2022-10-18T08:31:05.107Z,20.56
2022-10-18T08:33:33.318Z,19.71
2022-10-18T08:36:05.860Z,19.42
2022-10-18T08:38:34.731Z,18.82
2022-10-18T08:41:14.367Z,19.03
2022-10-18T08:43:48.180Z,19.07
2022-10-18T08:46:16.012Z,18.72
2022-10-18T08:48:48.628Z,17.75
2022-10-18T08:51:28.153Z,17.95
2022-10-18T08:54:03.101Z,18.55
2022-10-18T08:56:32.163Z,18.52
2022-10-18T08:59:03.160Z,18.66
2022-10-18T09:01:41.706Z,18.73
2022-10-18T09:04:25.469Z,18.83
2022-10-18T09:07:08.838Z,19.01
2022-10-18T09:09:44.622Z,19.28
2022-10-18T09:12:36.999Z,19.80
2022-10-18T09:15:14.620Z,20.27
2022-10-18T09:17:55.746Z,20.41
2022-10-18T09:20:28.625Z,20.63
2022-10-18T09:23:00.360Z,20.85
2022-10-18T09:25:36.402Z,21.55
2022-10-18T09:28:16.850Z,21.93
2022-10-18T09:30:57.222Z,22.06
2022-10-18T09:33:36.652Z,22.24
2022-10-18T09:36:07.209Z,22.74
2022-10-18T09:38:43.870Z,22.98
2022-10-18T09:41:17.928Z,23.31
2022-10-18T09:43:53.251Z,23.53
2022-10-18T09:46:28.847Z,23.59
2022-10-18T09:49:01.356Z,23.64
2022-10-18T09:51:34.875Z,23.86
2022-10-18T09:54:15.624Z,24.04
2022-10-18T09:56:49.792Z,23.83
2022-10-18T09:59:36.938Z,24.08
2022-10-18T10:02:07.402Z,23.93
2022-10-18T10:04:35.229Z,23.64
2022-10-18T10:07:03.551Z,24.15
2022-10-18T10:09:37.796Z,24.33
2022-10-18T10:12:05.970Z,24.79
2022-10-18T10:14:44.889Z,25.23
2022-10-18T10:17:25.280Z,25.39
2022-10-18T10:20:00.036Z,25.83
2022-10-18T10:22:31.637Z,26.21
2022-10-18T10:24:59.855Z,26.54
2022-10-18T10:27:32.724Z,26.80
2022-10-18T10:30:06.804Z,26.49
2022-10-18T10:32:47.974Z,26.39
2022-10-18T10:35:33.885Z,26.58
2022-10-18T10:38:24.126Z,26.47
2022-10-18T10:40:51.874Z,26.46
2022-10-18T10:43:40.467Z,26.87
2022-10-18T10:46:10.544Z,27.47
2022-10-18T10:48:48.333Z,27.85
2022-10-18T10:51:21.218Z,28.04
2022-10-18T10:53:52.564Z,28.10
2022-10-18T10:56:27.279Z,28.20
2022-10-18T10:58:56.799Z,28.36
2022-10-18T11:01:33.677Z,28.61
2022-10-18T11:04:24.742Z,28.66
2022-10-18T11:07:04.832Z,28.88
2022-10-18T11:09:46.561Z,28.45
2022-10-18T11:12:27.752Z,28.49
2022-10-18T11:15:05.453Z,28.74
2022-10-18T11:17:40.660Z,28.83
2022-10-18T11:20:24.142Z,29.04
2022-10-18T11:23:01.150Z,29.18
2022-10-18T11:26:15.271Z,29.37
2022-10-18T11:28:59.157Z,29.18
2022-10-18T11:31:33.586Z,29.18
2022-10-18T11:34:14.840Z,29.14
2022-10-18T11:36:56.470Z,29.03
2022-10-18T11:39:42.201Z,28.86
2022-10-18T11:42:20.282Z,28.68
2022-10-18T11:44:58.206Z,29.10
2022-10-18T11:47:36.991Z,29.32
2022-10-18T11:50:14.995Z,29.37
2022-10-18T11:52:55.019Z,29.60
2022-10-18T11:55:37.797Z,29.81
2022-10-18T11:58:24.468Z,29.95
2022-10-18T12:00:59.841Z,30.07
2022-10-18T12:03:38.509Z,30.22
2022-10-18T12:06:13.402Z,29.92
2022-10-18T12:08:45.261Z,29.77
2022-10-18T12:11:17.433Z,29.58
2022-10-18T12:13:50.730Z,29.16
2022-10-18T12:16:45.613Z,29.17
2022-10-18T12:19:25.208Z,29.46
2022-10-18T12:21:57.406Z,29.31
2022-10-18T12:24:29.624Z,29.31
2022-10-18T12:27:00.235Z,29.24
2022-10-18T12:29:30.961Z,29.57
2022-10-18T12:32:02.073Z,29.56
2022-10-18T12:34:36.525Z,29.67
2022-10-18T12:37:26.357Z,29.53
2022-10-18T12:40:09.784Z,29.65
2022-10-18T12:42:45.649Z,29.62
2022-10-18T12:45:27.524Z,29.40
2022-10-18T12:47:59.503Z,29.55
2022-10-18T12:50:33.908Z,29.76
2022-10-18T12:53:05.432Z,29.84
2022-10-18T12:55:38.491Z,30.15
2022-10-18T12:58:23.733Z,30.13
2022-10-18T13:01:01.210Z,29.99
2022-10-18T13:03:41.895Z,30.16
2022-10-18T13:06:09.838Z,30.08
2022-10-18T13:08:43.035Z,30.01
2022-10-18T13:11:35.731Z,30.17
2022-10-18T13:14:24.729Z,30.26
2022-10-18T13:16:58.561Z,30.26
2022-10-18T13:19:34.623Z,30.28
2022-10-18T13:22:19.881Z,29.88
2022-10-18T13:25:01.785Z,29.38
2022-10-18T13:27:40.451Z,28.85
2022-10-18T13:30:34.624Z,29.18
2022-10-18T13:33:10.532Z,29.83
2022-10-18T13:35:55.521Z,30.33
2022-10-18T13:38:48.329Z,30.57
2022-10-18T13:41:19.842Z,30.86
2022-10-18T13:44:30.430Z,31.08
2022-10-18T13:47:34.953Z,31.07
2022-10-18T13:50:28.079Z,31.23
2022-10-18T13:53:23.300Z,30.91
2022-10-18T13:55:59.811Z,31.10
2022-10-18T13:58:44.612Z,31.30
2022-10-18T14:01:29.978Z,31.19
2022-10-18T14:04:45.708Z,31.18
2022-10-18T14:07:14.119Z,31.12
2022-10-18T14:09:54.893Z,30.83
2022-10-18T14:12:30.320Z,30.56
2022-10-18T14:15:06.349Z,30.26
2022-10-18T14:17:43.250Z,29.15
2022-10-18T14:20:27.353Z,28.27
2022-10-18T14:23:03.615Z,27.60
2022-10-18T14:25:35.510Z,26.47
2022-10-18T14:28:14.234Z,26.66
2022-10-18T14:30:57.591Z,26.49
2022-10-18T14:33:29.482Z,27.01
2022-10-18T14:36:02.307Z,27.04
2022-10-18T14:38:31.051Z,26.75
2022-10-18T14:41:16.464Z,26.47
2022-10-18T14:43:46.103Z,26.55
2022-10-18T14:46:22.013Z,25.54
2022-10-18T14:48:57.824Z,25.36
2022-10-18T14:51:26.236Z,24.52
2022-10-18T14:53:54.986Z,24.37
2022-10-18T14:56:27.528Z,24.84
2022-10-18T14:58:58.454Z,24.71
2022-10-18T15:01:29.324Z,24.57
2022-10-18T15:04:01.061Z,24.02
2022-10-18T15:06:28.925Z,23.76
2022-10-18T15:08:58.878Z,24.14
2022-10-18T15:11:28.254Z,24.22
2022-10-18T15:13:58.459Z,24.36
2022-10-18T15:16:28.812Z,23.86
2022-10-18T15:19:07.137Z,23.80
2022-10-18T15:21:36.654Z,23.74
2022-10-18T15:24:21.778Z,23.85
2022-10-18T15:26:51.101Z,24.00
2022-10-18T15:29:21.010Z,24.36
2022-10-18T15:31:51.056Z,24.21
2022-10-18T15:34:23.446Z,23.76
2022-10-18T15:36:53.014Z,23.29
2022-10-18T15:39:23.214Z,22.57
2022-10-18T15:41:52.672Z,22.34
2022-10-18T15:44:26.998Z,22.31
2022-10-18T15:46:56.690Z,22.19
2022-10-18T15:49:59.936Z,21.65
2022-10-18T15:52:38.669Z,21.39
2022-10-18T15:55:49.325Z,21.12
2022-10-18T15:58:25.722Z,20.95
2022-10-18T16:00:56.317Z,20.86
2022-10-18T16:03:24.890Z,20.30
2022-10-18T16:06:00.357Z,20.05
2022-10-18T16:08:30.487Z,19.93
2022-10-18T16:10:58.880Z,19.44
2022-10-18T16:13:27.290Z,19.40
2022-10-18T16:15:56.631Z,19.57
2022-10-18T16:18:27.899Z,19.48
2022-10-18T16:20:57.926Z,19.71
2022-10-18T16:23:28.513Z,19.60
2022-10-18T16:25:56.820Z,19.33
2022-10-18T16:28:26.652Z,19.16
2022-10-18T16:30:57.468Z,18.80
2022-10-18T16:33:26.219Z,18.90
2022-10-18T16:35:55.416Z,18.76
2022-10-18T16:38:32.787Z,18.61
2022-10-18T16:41:03.782Z,18.56
2022-10-18T16:43:31.639Z,18.25
2022-10-18T16:45:59.373Z,18.12
2022-10-18T16:48:27.289Z,18.00
2022-10-18T16:50:56.593Z,18.06
2022-10-18T16:53:26.084Z,17.96
2022-10-18T16:55:57.207Z,17.70
2022-10-18T16:58:26.315Z,17.59
2022-10-18T17:00:54.515Z,17.54
2022-10-18T17:03:25.894Z,17.30
2022-10-18T17:05:54.205Z,17.25
2022-10-18T17:08:24.740Z,17.20
2022-10-18T17:10:56.200Z,16.98
2022-10-18T17:13:25.358Z,16.84
2022-10-18T17:15:54.166Z,16.82
2022-10-18T17:18:24.674Z,16.55
2022-10-18T17:20:52.450Z,16.25
2022-10-18T17:23:20.738Z,16.35
2022-10-18T17:26:04.649Z,16.37
2022-10-18T17:28:38.324Z,16.37
2022-10-18T17:31:09.842Z,16.23
2022-10-18T17:33:37.835Z,16.14
2022-10-18T17:36:06.381Z,16.19
2022-10-18T17:38:34.385Z,16.25
2022-10-18T17:41:07.390Z,16.17
2022-10-18T17:46:08.398Z,15.90
2022-10-18T17:48:36.214Z,15.88
2022-10-18T17:51:08.028Z,15.65
2022-10-18T17:53:36.172Z,15.46
2022-10-18T17:56:07.769Z,15.18
2022-10-18T17:58:36.165Z,15.02
2022-10-18T18:01:14.029Z,15.14
2022-10-18T18:03:42.450Z,15.37
2022-10-18T18:06:15.997Z,15.50
2022-10-18T18:08:43.808Z,15.63
2022-10-18T18:11:11.599Z,15.65
2022-10-18T18:13:39.472Z,15.58
2022-10-18T18:16:14.279Z,15.39
2022-10-18T18:18:42.866Z,15.12
2022-10-18T18:21:11.524Z,14.94
2022-10-18T18:23:39.284Z,14.67
2022-10-18T18:26:07.494Z,14.47
2022-10-18T18:28:36.108Z,14.18
2022-10-18T18:31:08.144Z,13.86
2022-10-18T18:33:37.925Z,13.62
2022-10-18T18:36:07.053Z,13.37
2022-10-18T18:38:36.830Z,13.39
2022-10-18T18:41:07.669Z,13.29
2022-10-18T18:43:35.731Z,13.36
2022-10-18T18:46:03.928Z,13.30
2022-10-18T18:48:33.549Z,13.44
2022-10-18T18:51:03.256Z,13.60
2022-10-18T18:53:31.464Z,13.71
2022-10-18T18:56:05.595Z,13.78
2022-10-18T18:58:34.849Z,13.84
2022-10-18T19:01:07.578Z,13.80
2022-10-18T19:03:36.839Z,13.51
2022-10-18T19:06:08.464Z,13.16
2022-10-18T19:08:38.075Z,13.13
2022-10-18T19:11:09.075Z,13.29
2022-10-18T19:13:37.535Z,13.38
2022-10-18T19:16:27.415Z,13.37
2022-10-18T19:18:59.165Z,13.23
2022-10-18T19:21:34.854Z,13.10
2022-10-18T19:24:06.705Z,13.07
2022-10-18T19:26:37.800Z,12.76
2022-10-18T19:29:09.042Z,12.80
2022-10-18T19:31:38.003Z,12.62
2022-10-18T19:34:07.647Z,12.51
2022-10-18T19:36:37.593Z,12.42
2022-10-18T19:39:07.572Z,12.48
2022-10-18T19:41:36.035Z,12.48
2022-10-18T19:44:03.826Z,12.29
2022-10-18T19:46:31.595Z,12.22
2022-10-18T19:48:59.293Z,12.16
2022-10-18T19:51:28.330Z,12.06
2022-10-18T19:53:58.373Z,11.89
2022-10-18T19:56:27.770Z,11.70
2022-10-18T19:58:55.850Z,11.55
2022-10-18T20:01:25.807Z,11.50
2022-10-18T20:03:53.923Z,11.66
2022-10-18T20:06:21.876Z,11.79
2022-10-18T20:08:49.977Z,11.81
2022-10-18T20:11:21.550Z,11.69
2022-10-18T20:13:49.984Z,11.74
2022-10-18T20:16:20.123Z,11.81
2022-10-18T20:18:49.951Z,11.83
2022-10-18T20:21:19.000Z,11.90
2022-10-18T20:23:46.733Z,11.94
2022-10-18T20:26:19.657Z,11.96
2022-10-18T20:28:56.027Z,11.93
2022-10-18T20:31:25.260Z,11.93
2022-10-18T20:33:56.349Z,11.81
2022-10-18T20:36:23.953Z,11.50
2022-10-18T20:38:51.707Z,11.29
2022-10-18T20:41:21.687Z,11.26
2022-10-18T20:43:53.479Z,11.07
2022-10-18T20:46:21.559Z,10.96
2022-10-18T20:48:50.222Z,10.85
2022-10-18T20:51:18.026Z,10.70
2022-10-18T20:53:46.669Z,10.42
2022-10-18T20:56:16.257Z,10.18
2022-10-18T20:58:45.670Z,9.94
2022-10-18T21:01:17.744Z,9.88
2022-10-18T21:03:47.932Z,9.79
2022-10-18T21:06:18.330Z,9.66
2022-10-18T21:08:46.180Z,9.51
2022-10-18T21:11:16.067Z,9.44
2022-10-18T21:13:43.815Z,9.52
2022-10-18T21:16:11.589Z,9.50
2022-10-18T21:18:41.032Z,9.24
2022-10-18T21:21:10.961Z,9.09
2022-10-18T21:23:38.922Z,9.04
2022-10-18T21:26:07.262Z,8.92
2022-10-18T21:28:35.673Z,8.97
2022-10-18T21:31:14.480Z,9.00
2022-10-18T21:33:45.367Z,9.18
2022-10-18T21:36:13.988Z,9.35
2022-10-18T21:38:45.564Z,9.44
2022-10-18T21:41:14.766Z,9.56
2022-10-18T21:43:44.119Z,9.65
2022-10-18T21:46:12.824Z,9.69
2022-10-18T21:48:46.102Z,9.55
2022-10-18T21:51:15.490Z,9.41
2022-10-18T21:53:44.325Z,9.48
2022-10-18T21:56:14.489Z,9.56
2022-10-18T21:58:42.862Z,9.59
2022-10-18T22:01:11.170Z,9.54
2022-10-18T22:03:39.798Z,9.28
2022-10-18T22:06:13.913Z,9.04
2022-10-18T22:08:42.165Z,8.94
2022-10-18T22:11:13.231Z,8.92
2022-10-18T22:13:42.485Z,8.83
2022-10-18T22:16:12.173Z,8.63
2022-10-18T22:18:39.870Z,8.45
2022-10-18T22:21:11.073Z,8.35
2022-10-18T22:23:41.752Z,8.32
2022-10-18T22:26:12.163Z,8.22
2022-10-18T22:28:41.593Z,8.34
2022-10-18T22:31:16.912Z,8.22
2022-10-18T22:33:45.124Z,8.20
2022-10-18T22:36:16.733Z,8.29
2022-10-18T22:38:44.442Z,8.31
2022-10-18T22:41:14.308Z,8.24
2022-10-18T22:43:42.145Z,8.34
2022-10-18T22:46:12.697Z,8.49
2022-10-18T22:48:40.970Z,8.59
2022-10-18T22:51:09.313Z,8.68
2022-10-18T22:53:39.838Z,8.75
2022-10-18T22:56:08.729Z,8.72
2022-10-18T22:58:36.659Z,8.61
2022-10-18T23:01:07.561Z,8.41
2022-10-18T23:03:35.670Z,8.30
2022-10-18T23:06:04.237Z,8.30
2022-10-18T23:08:32.837Z,8.27
2022-10-18T23:11:02.901Z,8.14
2022-10-18T23:13:30.653Z,8.02
2022-10-18T23:16:04.626Z,8.03
2022-10-18T23:18:33.939Z,7.96
2022-10-18T23:21:05.401Z,7.92
2022-10-18T23:23:35.462Z,7.88
2022-10-18T23:26:06.445Z,7.87
2022-10-18T23:28:35.761Z,7.81
2022-10-18T23:31:11.573Z,7.79
2022-10-18T23:33:39.865Z,7.87
2022-10-18T23:36:09.432Z,7.81
2022-10-18T23:38:38.928Z,7.72
2022-10-18T23:41:10.621Z,7.73
2022-10-18T23:43:39.574Z,7.80
2022-10-18T23:46:07.483Z,7.80
2022-10-18T23:48:35.448Z,7.85
2022-10-18T23:51:05.867Z,7.85
2022-10-18T23:53:34.618Z,7.78
2022-10-18T23:56:06.568Z,7.56
2022-10-18T23:58:36.865Z,7.38
